sensor_id;sensor_type;location;lat;lon;timestamp;P1;durP1;ratioP1;P2;durP2;ratioP2
59062;SDS011;44851;45.648;9.004;2024-01-30T00:01:02;83.73;;;56.90;;
59062;SDS011;44851;45.648;9.004;2024-01-30T00:03:27;86.67;;;55.87;;
59062;SDS011;44851;45.648;9.004;2024-01-30T00:05:54;78.70;;;52.47;;
59062;SDS011;44851;45.648;9.004;2024-01-30T00:08:20;80.10;;;53.33;;
59062;SDS011;44851;45.648;9.004;2024-01-30T00:10:45;85.70;;;55.30;;
59062;SDS011;44851;45.648;9.004;2024-01-30T00:13:10;80.43;;;55.53;;
59062;SDS011;44851;45.648;9.004;2024-01-30T00:15:37;82.83;;;55.23;;
59062;SDS011;44851;45.648;9.004;2024-01-30T00:18:02;82.70;;;54.27;;
59062;SDS011;44851;45.648;9.004;2024-01-30T00:20:27;80.87;;;53.70;;
59062;SDS011;44851;45.648;9.004;2024-01-30T00:22:53;80.30;;;53.13;;
59062;SDS011;44851;45.648;9.004;2024-01-30T00:25:18;78.83;;;52.60;;
59062;SDS011;44851;45.648;9.004;2024-01-30T00:27:44;78.97;;;53.80;;
59062;SDS011;44851;45.648;9.004;2024-01-30T00:30:09;78.57;;;53.33;;
59062;SDS011;44851;45.648;9.004;2024-01-30T00:32:35;76.90;;;53.17;;
59062;SDS011;44851;45.648;9.004;2024-01-30T00:35:00;76.67;;;53.30;;
59062;SDS011;44851;45.648;9.004;2024-01-30T00:37:26;79.63;;;53.47;;
59062;SDS011;44851;45.648;9.004;2024-01-30T00:39:51;79.83;;;54.30;;
59062;SDS011;44851;45.648;9.004;2024-01-30T00:42:17;74.53;;;52.60;;
59062;SDS011;44851;45.648;9.004;2024-01-30T00:44:42;74.83;;;50.77;;
59062;SDS011;44851;45.648;9.004;2024-01-30T00:47:08;79.47;;;52.20;;
59062;SDS011;44851;45.648;9.004;2024-01-30T00:49:33;71.20;;;50.40;;
59062;SDS011;44851;45.648;9.004;2024-01-30T00:51:59;79.93;;;51.17;;
59062;SDS011;44851;45.648;9.004;2024-01-30T00:54:24;78.77;;;52.87;;
59062;SDS011;44851;45.648;9.004;2024-01-30T00:56:50;76.20;;;51.83;;
59062;SDS011;44851;45.648;9.004;2024-01-30T00:59:15;77.00;;;52.67;;
59062;SDS011;44851;45.648;9.004;2024-01-30T01:01:40;67.73;;;49.30;;
59062;SDS011;44851;45.648;9.004;2024-01-30T01:04:06;71.83;;;49.70;;
59062;SDS011;44851;45.648;9.004;2024-01-30T01:06:32;70.10;;;48.17;;
59062;SDS011;44851;45.648;9.004;2024-01-30T01:08:57;67.73;;;49.10;;
59062;SDS011;44851;45.648;9.004;2024-01-30T01:11:23;72.97;;;49.23;;
59062;SDS011;44851;45.648;9.004;2024-01-30T01:13:48;65.23;;;46.33;;
59062;SDS011;44851;45.648;9.004;2024-01-30T01:16:14;69.67;;;46.67;;
59062;SDS011;44851;45.648;9.004;2024-01-30T01:18:39;65.33;;;46.90;;
59062;SDS011;44851;45.648;9.004;2024-01-30T01:21:04;63.90;;;45.17;;
59062;SDS011;44851;45.648;9.004;2024-01-30T01:23:30;62.90;;;45.63;;
59062;SDS011;44851;45.648;9.004;2024-01-30T01:25:56;63.73;;;45.10;;
59062;SDS011;44851;45.648;9.004;2024-01-30T01:28:21;64.37;;;45.67;;
59062;SDS011;44851;45.648;9.004;2024-01-30T01:30:47;57.07;;;43.57;;
59062;SDS011;44851;45.648;9.004;2024-01-30T01:33:12;65.90;;;45.30;;
59062;SDS011;44851;45.648;9.004;2024-01-30T01:35:39;62.93;;;43.73;;
59062;SDS011;44851;45.648;9.004;2024-01-30T01:38:05;60.67;;;43.30;;
59062;SDS011;44851;45.648;9.004;2024-01-30T01:40:30;57.73;;;42.93;;
59062;SDS011;44851;45.648;9.004;2024-01-30T01:42:56;63.37;;;43.07;;
59062;SDS011;44851;45.648;9.004;2024-01-30T01:45:22;60.63;;;42.57;;
59062;SDS011;44851;45.648;9.004;2024-01-30T01:47:48;58.47;;;41.20;;
59062;SDS011;44851;45.648;9.004;2024-01-30T01:50:18;56.93;;;40.30;;
59062;SDS011;44851;45.648;9.004;2024-01-30T01:52:48;57.07;;;41.57;;
59062;SDS011;44851;45.648;9.004;2024-01-30T01:55:15;58.23;;;40.37;;
59062;SDS011;44851;45.648;9.004;2024-01-30T01:57:43;51.33;;;39.37;;
59062;SDS011;44851;45.648;9.004;2024-01-30T02:00:09;54.27;;;39.67;;
59062;SDS011;44851;45.648;9.004;2024-01-30T02:02:35;51.97;;;38.63;;
59062;SDS011;44851;45.648;9.004;2024-01-30T02:05:02;55.80;;;40.07;;
59062;SDS011;44851;45.648;9.004;2024-01-30T02:07:28;51.83;;;39.30;;
59062;SDS011;44851;45.648;9.004;2024-01-30T02:09:53;55.57;;;38.23;;
59062;SDS011;44851;45.648;9.004;2024-01-30T02:12:20;54.87;;;39.03;;
59062;SDS011;44851;45.648;9.004;2024-01-30T02:14:46;49.37;;;36.83;;
59062;SDS011;44851;45.648;9.004;2024-01-30T02:17:12;49.23;;;35.50;;
59062;SDS011;44851;45.648;9.004;2024-01-30T02:19:38;50.67;;;37.30;;
59062;SDS011;44851;45.648;9.004;2024-01-30T02:22:04;48.33;;;34.97;;
59062;SDS011;44851;45.648;9.004;2024-01-30T02:24:30;49.67;;;36.87;;
59062;SDS011;44851;45.648;9.004;2024-01-30T02:26:55;50.37;;;35.97;;
59062;SDS011;44851;45.648;9.004;2024-01-30T02:29:20;51.03;;;37.03;;
59062;SDS011;44851;45.648;9.004;2024-01-30T02:31:46;52.83;;;35.73;;
59062;SDS011;44851;45.648;9.004;2024-01-30T02:34:12;49.97;;;35.60;;
59062;SDS011;44851;45.648;9.004;2024-01-30T02:36:37;45.33;;;31.90;;
59062;SDS011;44851;45.648;9.004;2024-01-30T02:39:03;49.37;;;34.97;;
59062;SDS011;44851;45.648;9.004;2024-01-30T02:41:29;48.67;;;33.47;;
59062;SDS011;44851;45.648;9.004;2024-01-30T02:43:54;46.80;;;33.90;;
59062;SDS011;44851;45.648;9.004;2024-01-30T02:46:19;43.67;;;32.93;;
59062;SDS011;44851;45.648;9.004;2024-01-30T02:48:45;47.27;;;33.70;;
59062;SDS011;44851;45.648;9.004;2024-01-30T02:51:10;46.90;;;32.60;;
59062;SDS011;44851;45.648;9.004;2024-01-30T02:53:36;45.23;;;32.43;;
59062;SDS011;44851;45.648;9.004;2024-01-30T02:56:04;45.43;;;32.87;;
59062;SDS011;44851;45.648;9.004;2024-01-30T02:58:30;46.80;;;33.07;;
59062;SDS011;44851;45.648;9.004;2024-01-30T03:00:56;44.90;;;32.37;;
59062;SDS011;44851;45.648;9.004;2024-01-30T03:03:21;46.57;;;33.23;;
59062;SDS011;44851;45.648;9.004;2024-01-30T03:05:47;41.77;;;32.17;;
59062;SDS011;44851;45.648;9.004;2024-01-30T03:08:12;43.80;;;31.90;;
59062;SDS011;44851;45.648;9.004;2024-01-30T03:10:37;43.97;;;32.83;;
59062;SDS011;44851;45.648;9.004;2024-01-30T03:13:03;45.63;;;31.63;;
59062;SDS011;44851;45.648;9.004;2024-01-30T03:15:28;43.27;;;33.37;;
59062;SDS011;44851;45.648;9.004;2024-01-30T03:17:54;46.43;;;32.93;;
59062;SDS011;44851;45.648;9.004;2024-01-30T03:20:19;43.30;;;31.93;;
59062;SDS011;44851;45.648;9.004;2024-01-30T03:22:45;42.10;;;31.17;;
59062;SDS011;44851;45.648;9.004;2024-01-30T03:25:10;45.20;;;31.40;;
59062;SDS011;44851;45.648;9.004;2024-01-30T03:27:36;44.77;;;32.23;;
59062;SDS011;44851;45.648;9.004;2024-01-30T03:30:01;45.53;;;32.90;;
59062;SDS011;44851;45.648;9.004;2024-01-30T03:32:27;43.83;;;32.47;;
59062;SDS011;44851;45.648;9.004;2024-01-30T03:34:52;44.67;;;31.50;;
59062;SDS011;44851;45.648;9.004;2024-01-30T03:37:18;45.83;;;32.27;;
59062;SDS011;44851;45.648;9.004;2024-01-30T03:39:44;42.77;;;31.00;;
59062;SDS011;44851;45.648;9.004;2024-01-30T03:42:09;41.77;;;30.27;;
59062;SDS011;44851;45.648;9.004;2024-01-30T03:44:35;41.50;;;30.67;;
59062;SDS011;44851;45.648;9.004;2024-01-30T03:47:00;44.37;;;29.67;;
59062;SDS011;44851;45.648;9.004;2024-01-30T03:49:26;42.13;;;31.13;;
59062;SDS011;44851;45.648;9.004;2024-01-30T03:51:51;40.30;;;29.00;;
59062;SDS011;44851;45.648;9.004;2024-01-30T03:54:16;41.23;;;29.07;;
59062;SDS011;44851;45.648;9.004;2024-01-30T03:56:42;39.67;;;28.30;;
59062;SDS011;44851;45.648;9.004;2024-01-30T03:59:07;42.93;;;29.70;;
59062;SDS011;44851;45.648;9.004;2024-01-30T04:01:33;40.67;;;29.63;;
59062;SDS011;44851;45.648;9.004;2024-01-30T04:03:58;37.83;;;28.00;;
59062;SDS011;44851;45.648;9.004;2024-01-30T04:06:23;42.63;;;29.00;;
59062;SDS011;44851;45.648;9.004;2024-01-30T04:08:49;41.43;;;29.77;;
59062;SDS011;44851;45.648;9.004;2024-01-30T04:11:14;38.10;;;28.43;;
59062;SDS011;44851;45.648;9.004;2024-01-30T04:13:40;42.43;;;29.83;;
59062;SDS011;44851;45.648;9.004;2024-01-30T04:16:08;37.03;;;28.10;;
59062;SDS011;44851;45.648;9.004;2024-01-30T04:18:33;38.47;;;28.97;;
59062;SDS011;44851;45.648;9.004;2024-01-30T04:20:59;41.40;;;29.20;;
59062;SDS011;44851;45.648;9.004;2024-01-30T04:23:25;35.47;;;27.10;;
59062;SDS011;44851;45.648;9.004;2024-01-30T04:25:50;36.17;;;27.00;;
59062;SDS011;44851;45.648;9.004;2024-01-30T04:28:16;36.50;;;26.90;;
59062;SDS011;44851;45.648;9.004;2024-01-30T04:30:41;39.67;;;27.63;;
59062;SDS011;44851;45.648;9.004;2024-01-30T04:33:07;35.10;;;26.03;;
59062;SDS011;44851;45.648;9.004;2024-01-30T04:35:32;36.97;;;28.43;;
59062;SDS011;44851;45.648;9.004;2024-01-30T04:37:57;39.50;;;27.90;;
59062;SDS011;44851;45.648;9.004;2024-01-30T04:40:23;36.60;;;27.20;;
59062;SDS011;44851;45.648;9.004;2024-01-30T04:42:48;37.90;;;27.63;;
59062;SDS011;44851;45.648;9.004;2024-01-30T04:45:14;39.73;;;28.57;;
59062;SDS011;44851;45.648;9.004;2024-01-30T04:47:40;34.63;;;26.60;;
59062;SDS011;44851;45.648;9.004;2024-01-30T04:50:08;37.80;;;26.33;;
59062;SDS011;44851;45.648;9.004;2024-01-30T04:52:34;38.00;;;26.70;;
59062;SDS011;44851;45.648;9.004;2024-01-30T04:54:59;36.90;;;25.80;;
59062;SDS011;44851;45.648;9.004;2024-01-30T04:57:25;34.77;;;25.80;;
59062;SDS011;44851;45.648;9.004;2024-01-30T04:59:50;36.43;;;24.57;;
59062;SDS011;44851;45.648;9.004;2024-01-30T05:02:16;37.17;;;26.20;;
59062;SDS011;44851;45.648;9.004;2024-01-30T05:04:41;34.93;;;25.30;;
59062;SDS011;44851;45.648;9.004;2024-01-30T05:07:07;37.50;;;26.47;;
59062;SDS011;44851;45.648;9.004;2024-01-30T05:09:32;38.90;;;26.47;;
59062;SDS011;44851;45.648;9.004;2024-01-30T05:11:57;34.77;;;25.13;;
59062;SDS011;44851;45.648;9.004;2024-01-30T05:14:23;36.20;;;26.37;;
59062;SDS011;44851;45.648;9.004;2024-01-30T05:16:49;36.23;;;25.70;;
59062;SDS011;44851;45.648;9.004;2024-01-30T05:19:14;36.33;;;25.57;;
59062;SDS011;44851;45.648;9.004;2024-01-30T05:21:40;36.60;;;25.50;;
59062;SDS011;44851;45.648;9.004;2024-01-30T05:24:06;36.97;;;26.20;;
59062;SDS011;44851;45.648;9.004;2024-01-30T05:26:32;36.77;;;25.33;;
59062;SDS011;44851;45.648;9.004;2024-01-30T05:28:57;37.27;;;25.80;;
59062;SDS011;44851;45.648;9.004;2024-01-30T05:31:23;33.30;;;24.17;;
59062;SDS011;44851;45.648;9.004;2024-01-30T05:33:48;35.30;;;24.33;;
59062;SDS011;44851;45.648;9.004;2024-01-30T05:36:14;34.00;;;24.43;;
59062;SDS011;44851;45.648;9.004;2024-01-30T05:38:39;36.63;;;25.10;;
59062;SDS011;44851;45.648;9.004;2024-01-30T05:41:05;34.17;;;24.37;;
59062;SDS011;44851;45.648;9.004;2024-01-30T05:43:30;35.43;;;25.60;;
59062;SDS011;44851;45.648;9.004;2024-01-30T05:45:56;35.03;;;23.93;;
59062;SDS011;44851;45.648;9.004;2024-01-30T05:48:21;38.47;;;25.57;;
59062;SDS011;44851;45.648;9.004;2024-01-30T05:50:47;35.63;;;24.37;;
59062;SDS011;44851;45.648;9.004;2024-01-30T05:53:12;34.27;;;24.20;;
59062;SDS011;44851;45.648;9.004;2024-01-30T05:55:37;31.83;;;23.27;;
59062;SDS011;44851;45.648;9.004;2024-01-30T05:58:03;37.70;;;25.60;;
59062;SDS011;44851;45.648;9.004;2024-01-30T06:00:29;29.97;;;23.70;;
59062;SDS011;44851;45.648;9.004;2024-01-30T06:02:54;34.33;;;24.77;;
59062;SDS011;44851;45.648;9.004;2024-01-30T06:05:20;35.87;;;25.00;;
59062;SDS011;44851;45.648;9.004;2024-01-30T06:07:45;33.23;;;23.67;;
59062;SDS011;44851;45.648;9.004;2024-01-30T06:10:11;32.83;;;22.97;;
59062;SDS011;44851;45.648;9.004;2024-01-30T06:12:36;34.43;;;22.93;;
59062;SDS011;44851;45.648;9.004;2024-01-30T06:15:02;32.97;;;22.57;;
59062;SDS011;44851;45.648;9.004;2024-01-30T06:17:28;32.10;;;23.03;;
59062;SDS011;44851;45.648;9.004;2024-01-30T06:19:54;34.47;;;22.83;;
59062;SDS011;44851;45.648;9.004;2024-01-30T06:22:19;33.37;;;23.13;;
59062;SDS011;44851;45.648;9.004;2024-01-30T06:24:45;32.47;;;23.53;;
59062;SDS011;44851;45.648;9.004;2024-01-30T06:27:13;32.73;;;22.80;;
59062;SDS011;44851;45.648;9.004;2024-01-30T06:29:38;32.03;;;23.47;;
59062;SDS011;44851;45.648;9.004;2024-01-30T06:32:05;34.33;;;24.53;;
59062;SDS011;44851;45.648;9.004;2024-01-30T06:34:30;34.50;;;24.67;;
59062;SDS011;44851;45.648;9.004;2024-01-30T06:36:56;33.23;;;24.67;;
59062;SDS011;44851;45.648;9.004;2024-01-30T06:39:21;31.53;;;23.70;;
59062;SDS011;44851;45.648;9.004;2024-01-30T06:41:47;33.83;;;24.07;;
59062;SDS011;44851;45.648;9.004;2024-01-30T06:44:12;28.87;;;22.10;;
59062;SDS011;44851;45.648;9.004;2024-01-30T06:46:38;34.53;;;23.30;;
59062;SDS011;44851;45.648;9.004;2024-01-30T06:49:04;32.23;;;23.07;;
59062;SDS011;44851;45.648;9.004;2024-01-30T06:51:29;33.20;;;24.33;;
59062;SDS011;44851;45.648;9.004;2024-01-30T06:53:54;33.67;;;23.53;;
59062;SDS011;44851;45.648;9.004;2024-01-30T06:56:20;30.23;;;22.27;;
59062;SDS011;44851;45.648;9.004;2024-01-30T06:58:52;32.00;;;22.63;;
59062;SDS011;44851;45.648;9.004;2024-01-30T07:01:17;33.20;;;22.93;;
59062;SDS011;44851;45.648;9.004;2024-01-30T07:03:43;30.93;;;23.03;;
59062;SDS011;44851;45.648;9.004;2024-01-30T07:06:08;29.73;;;22.40;;
59062;SDS011;44851;45.648;9.004;2024-01-30T07:08:36;33.47;;;23.17;;
59062;SDS011;44851;45.648;9.004;2024-01-30T07:11:02;29.63;;;22.53;;
59062;SDS011;44851;45.648;9.004;2024-01-30T07:13:28;36.47;;;23.37;;
59062;SDS011;44851;45.648;9.004;2024-01-30T07:15:53;33.63;;;23.53;;
59062;SDS011;44851;45.648;9.004;2024-01-30T07:18:19;30.20;;;22.70;;
59062;SDS011;44851;45.648;9.004;2024-01-30T07:20:44;35.20;;;24.43;;
59062;SDS011;44851;45.648;9.004;2024-01-30T07:23:14;30.77;;;22.40;;
59062;SDS011;44851;45.648;9.004;2024-01-30T07:25:42;35.87;;;24.47;;
59062;SDS011;44851;45.648;9.004;2024-01-30T07:28:08;33.50;;;24.30;;
59062;SDS011;44851;45.648;9.004;2024-01-30T07:30:42;32.87;;;23.37;;
59062;SDS011;44851;45.648;9.004;2024-01-30T07:33:08;32.87;;;24.10;;
59062;SDS011;44851;45.648;9.004;2024-01-30T07:35:34;32.43;;;23.30;;
59062;SDS011;44851;45.648;9.004;2024-01-30T07:38:00;33.63;;;23.63;;
59062;SDS011;44851;45.648;9.004;2024-01-30T07:40:25;32.40;;;22.47;;
59062;SDS011;44851;45.648;9.004;2024-01-30T07:42:52;31.47;;;23.37;;
59062;SDS011;44851;45.648;9.004;2024-01-30T07:45:21;32.40;;;22.87;;
59062;SDS011;44851;45.648;9.004;2024-01-30T07:47:48;34.07;;;24.07;;
59062;SDS011;44851;45.648;9.004;2024-01-30T07:50:14;30.27;;;22.60;;
59062;SDS011;44851;45.648;9.004;2024-01-30T07:52:40;30.00;;;22.20;;
59062;SDS011;44851;45.648;9.004;2024-01-30T07:55:05;30.83;;;21.77;;
59062;SDS011;44851;45.648;9.004;2024-01-30T07:57:32;29.03;;;21.73;;
59062;SDS011;44851;45.648;9.004;2024-01-30T07:59:59;30.27;;;21.27;;
59062;SDS011;44851;45.648;9.004;2024-01-30T08:02:24;31.87;;;24.13;;
59062;SDS011;44851;45.648;9.004;2024-01-30T08:04:50;35.67;;;24.30;;
59062;SDS011;44851;45.648;9.004;2024-01-30T08:07:15;30.47;;;22.83;;
59062;SDS011;44851;45.648;9.004;2024-01-30T08:09:42;26.03;;;20.63;;
59062;SDS011;44851;45.648;9.004;2024-01-30T08:12:09;30.70;;;22.33;;
59062;SDS011;44851;45.648;9.004;2024-01-30T08:14:35;28.37;;;20.97;;
59062;SDS011;44851;45.648;9.004;2024-01-30T08:17:00;28.23;;;21.73;;
59062;SDS011;44851;45.648;9.004;2024-01-30T08:19:26;28.10;;;21.07;;
59062;SDS011;44851;45.648;9.004;2024-01-30T08:21:51;25.47;;;19.23;;
59062;SDS011;44851;45.648;9.004;2024-01-30T08:24:17;25.30;;;20.17;;
59062;SDS011;44851;45.648;9.004;2024-01-30T08:26:42;25.93;;;20.17;;
59062;SDS011;44851;45.648;9.004;2024-01-30T08:29:08;25.93;;;21.13;;
59062;SDS011;44851;45.648;9.004;2024-01-30T08:31:33;25.27;;;20.97;;
59062;SDS011;44851;45.648;9.004;2024-01-30T08:33:59;25.03;;;21.57;;
59062;SDS011;44851;45.648;9.004;2024-01-30T08:36:24;28.40;;;22.70;;
59062;SDS011;44851;45.648;9.004;2024-01-30T08:38:50;28.30;;;21.27;;
59062;SDS011;44851;45.648;9.004;2024-01-30T08:41:15;26.93;;;21.77;;
59062;SDS011;44851;45.648;9.004;2024-01-30T08:43:41;26.87;;;21.13;;
59062;SDS011;44851;45.648;9.004;2024-01-30T08:46:06;25.27;;;21.57;;
59062;SDS011;44851;45.648;9.004;2024-01-30T08:48:32;27.43;;;21.60;;
59062;SDS011;44851;45.648;9.004;2024-01-30T08:50:57;25.10;;;21.23;;
59062;SDS011;44851;45.648;9.004;2024-01-30T08:53:23;29.20;;;21.67;;
59062;SDS011;44851;45.648;9.004;2024-01-30T08:55:48;27.00;;;21.73;;
59062;SDS011;44851;45.648;9.004;2024-01-30T08:58:14;26.17;;;22.30;;
59062;SDS011;44851;45.648;9.004;2024-01-30T09:00:40;32.43;;;22.47;;
59062;SDS011;44851;45.648;9.004;2024-01-30T09:03:06;28.63;;;22.50;;
59062;SDS011;44851;45.648;9.004;2024-01-30T09:05:31;27.40;;;21.83;;
59062;SDS011;44851;45.648;9.004;2024-01-30T09:07:57;28.53;;;23.00;;
59062;SDS011;44851;45.648;9.004;2024-01-30T09:10:22;30.90;;;23.23;;
59062;SDS011;44851;45.648;9.004;2024-01-30T09:12:47;25.40;;;21.37;;
59062;SDS011;44851;45.648;9.004;2024-01-30T09:15:14;28.93;;;23.07;;
59062;SDS011;44851;45.648;9.004;2024-01-30T09:17:40;27.50;;;23.17;;
59062;SDS011;44851;45.648;9.004;2024-01-30T09:20:05;31.10;;;25.53;;
59062;SDS011;44851;45.648;9.004;2024-01-30T09:22:31;32.90;;;26.67;;
59062;SDS011;44851;45.648;9.004;2024-01-30T09:24:57;35.60;;;28.27;;
59062;SDS011;44851;45.648;9.004;2024-01-30T09:27:23;37.20;;;27.97;;
59062;SDS011;44851;45.648;9.004;2024-01-30T09:29:48;33.50;;;28.10;;
59062;SDS011;44851;45.648;9.004;2024-01-30T09:32:14;34.23;;;26.40;;
59062;SDS011;44851;45.648;9.004;2024-01-30T09:34:40;35.00;;;26.73;;
59062;SDS011;44851;45.648;9.004;2024-01-30T09:37:06;30.57;;;25.07;;
59062;SDS011;44851;45.648;9.004;2024-01-30T09:39:32;30.10;;;26.63;;
59062;SDS011;44851;45.648;9.004;2024-01-30T09:42:02;29.77;;;24.10;;
59062;SDS011;44851;45.648;9.004;2024-01-30T09:44:36;32.87;;;25.37;;
59062;SDS011;44851;45.648;9.004;2024-01-30T09:47:03;29.40;;;24.47;;
59062;SDS011;44851;45.648;9.004;2024-01-30T09:49:33;28.67;;;24.73;;
59062;SDS011;44851;45.648;9.004;2024-01-30T09:52:01;30.63;;;26.20;;
59062;SDS011;44851;45.648;9.004;2024-01-30T09:54:30;29.60;;;24.80;;
59062;SDS011;44851;45.648;9.004;2024-01-30T09:56:56;29.80;;;24.43;;
59062;SDS011;44851;45.648;9.004;2024-01-30T09:59:22;30.07;;;24.33;;
59062;SDS011;44851;45.648;9.004;2024-01-30T10:01:48;32.83;;;24.97;;
59062;SDS011;44851;45.648;9.004;2024-01-30T10:04:15;31.97;;;25.10;;
59062;SDS011;44851;45.648;9.004;2024-01-30T10:06:40;32.20;;;25.37;;
59062;SDS011;44851;45.648;9.004;2024-01-30T10:09:07;34.80;;;27.00;;
59062;SDS011;44851;45.648;9.004;2024-01-30T10:11:33;40.57;;;29.43;;
59062;SDS011;44851;45.648;9.004;2024-01-30T10:13:59;43.73;;;30.27;;
59062;SDS011;44851;45.648;9.004;2024-01-30T10:16:25;42.23;;;29.97;;
59062;SDS011;44851;45.648;9.004;2024-01-30T10:18:50;38.63;;;28.53;;
59062;SDS011;44851;45.648;9.004;2024-01-30T10:21:16;39.33;;;28.63;;
59062;SDS011;44851;45.648;9.004;2024-01-30T10:23:43;44.00;;;30.03;;
59062;SDS011;44851;45.648;9.004;2024-01-30T10:26:09;36.90;;;28.13;;
59062;SDS011;44851;45.648;9.004;2024-01-30T10:28:35;34.87;;;27.27;;
59062;SDS011;44851;45.648;9.004;2024-01-30T10:31:00;34.07;;;27.00;;
59062;SDS011;44851;45.648;9.004;2024-01-30T10:33:28;39.57;;;29.57;;
59062;SDS011;44851;45.648;9.004;2024-01-30T10:36:01;35.27;;;27.70;;
59062;SDS011;44851;45.648;9.004;2024-01-30T10:38:28;36.73;;;28.80;;
59062;SDS011;44851;45.648;9.004;2024-01-30T10:40:58;35.77;;;27.80;;
59062;SDS011;44851;45.648;9.004;2024-01-30T10:43:32;40.30;;;29.70;;
59062;SDS011;44851;45.648;9.004;2024-01-30T10:48:46;31.30;;;25.63;;
59062;SDS011;44851;45.648;9.004;2024-01-30T10:51:16;33.77;;;26.63;;
59062;SDS011;44851;45.648;9.004;2024-01-30T10:53:43;31.30;;;27.43;;
59062;SDS011;44851;45.648;9.004;2024-01-30T10:56:11;32.47;;;27.50;;
59062;SDS011;44851;45.648;9.004;2024-01-30T10:58:38;33.30;;;26.90;;
59062;SDS011;44851;45.648;9.004;2024-01-30T11:01:04;33.90;;;27.07;;
59062;SDS011;44851;45.648;9.004;2024-01-30T11:03:31;31.53;;;25.53;;
59062;SDS011;44851;45.648;9.004;2024-01-30T11:05:59;33.63;;;26.30;;
59062;SDS011;44851;45.648;9.004;2024-01-30T11:08:26;30.47;;;25.23;;
59062;SDS011;44851;45.648;9.004;2024-01-30T11:10:56;29.43;;;25.67;;
59062;SDS011;44851;45.648;9.004;2024-01-30T11:13:26;33.27;;;27.20;;
59062;SDS011;44851;45.648;9.004;2024-01-30T11:15:53;31.80;;;26.03;;
59062;SDS011;44851;45.648;9.004;2024-01-30T11:18:25;31.00;;;24.63;;
59062;SDS011;44851;45.648;9.004;2024-01-30T11:20:55;32.47;;;25.87;;
59062;SDS011;44851;45.648;9.004;2024-01-30T11:23:22;32.87;;;25.57;;
59062;SDS011;44851;45.648;9.004;2024-01-30T11:25:48;31.30;;;25.90;;
59062;SDS011;44851;45.648;9.004;2024-01-30T11:28:14;32.00;;;24.70;;
59062;SDS011;44851;45.648;9.004;2024-01-30T11:30:43;34.13;;;26.57;;
59062;SDS011;44851;45.648;9.004;2024-01-30T11:33:10;33.80;;;28.17;;
59062;SDS011;44851;45.648;9.004;2024-01-30T11:35:40;39.07;;;31.20;;
59062;SDS011;44851;45.648;9.004;2024-01-30T11:38:10;43.93;;;30.90;;
59062;SDS011;44851;45.648;9.004;2024-01-30T11:40:38;40.80;;;31.07;;
59062;SDS011;44851;45.648;9.004;2024-01-30T11:43:04;44.97;;;34.50;;
59062;SDS011;44851;45.648;9.004;2024-01-30T11:45:31;45.40;;;34.30;;
59062;SDS011;44851;45.648;9.004;2024-01-30T11:47:58;40.17;;;33.40;;
59062;SDS011;44851;45.648;9.004;2024-01-30T11:50:32;43.10;;;33.17;;
59062;SDS011;44851;45.648;9.004;2024-01-30T11:53:01;45.47;;;34.27;;
59062;SDS011;44851;45.648;9.004;2024-01-30T11:55:28;40.37;;;33.23;;
59062;SDS011;44851;45.648;9.004;2024-01-30T11:57:55;41.07;;;34.30;;
59062;SDS011;44851;45.648;9.004;2024-01-30T12:00:21;48.40;;;34.17;;
59062;SDS011;44851;45.648;9.004;2024-01-30T12:02:53;40.23;;;32.23;;
59062;SDS011;44851;45.648;9.004;2024-01-30T12:05:22;36.80;;;30.83;;
59062;SDS011;44851;45.648;9.004;2024-01-30T12:07:48;33.63;;;29.73;;
59062;SDS011;44851;45.648;9.004;2024-01-30T12:10:14;37.63;;;27.43;;
59062;SDS011;44851;45.648;9.004;2024-01-30T12:12:43;29.40;;;22.27;;
59062;SDS011;44851;45.648;9.004;2024-01-30T12:15:10;29.20;;;23.40;;
59062;SDS011;44851;45.648;9.004;2024-01-30T12:17:36;31.77;;;24.23;;
59062;SDS011;44851;45.648;9.004;2024-01-30T12:20:23;36.83;;;29.20;;
59062;SDS011;44851;45.648;9.004;2024-01-30T12:22:48;34.57;;;26.73;;
59062;SDS011;44851;45.648;9.004;2024-01-30T12:25:15;33.27;;;27.00;;
59062;SDS011;44851;45.648;9.004;2024-01-30T12:27:43;32.20;;;26.70;;
59062;SDS011;44851;45.648;9.004;2024-01-30T12:30:15;28.97;;;25.20;;
59062;SDS011;44851;45.648;9.004;2024-01-30T12:32:42;35.60;;;28.40;;
59062;SDS011;44851;45.648;9.004;2024-01-30T12:35:12;33.50;;;28.93;;
59062;SDS011;44851;45.648;9.004;2024-01-30T12:37:42;31.37;;;27.87;;
59062;SDS011;44851;45.648;9.004;2024-01-30T12:40:08;36.67;;;30.03;;
59062;SDS011;44851;45.648;9.004;2024-01-30T12:42:35;34.33;;;29.87;;
59062;SDS011;44851;45.648;9.004;2024-01-30T12:45:04;30.80;;;27.43;;
59062;SDS011;44851;45.648;9.004;2024-01-30T12:47:30;33.57;;;26.60;;
59062;SDS011;44851;45.648;9.004;2024-01-30T12:49:55;30.27;;;26.93;;
59062;SDS011;44851;45.648;9.004;2024-01-30T12:52:21;31.83;;;28.37;;
59062;SDS011;44851;45.648;9.004;2024-01-30T12:54:47;35.93;;;28.23;;
59062;SDS011;44851;45.648;9.004;2024-01-30T12:57:14;36.17;;;31.17;;
59062;SDS011;44851;45.648;9.004;2024-01-30T12:59:39;30.17;;;26.73;;
59062;SDS011;44851;45.648;9.004;2024-01-30T13:02:05;30.83;;;26.40;;
59062;SDS011;44851;45.648;9.004;2024-01-30T13:04:31;34.20;;;26.67;;
59062;SDS011;44851;45.648;9.004;2024-01-30T13:06:57;29.50;;;26.27;;
59062;SDS011;44851;45.648;9.004;2024-01-30T13:09:23;31.63;;;27.67;;
59062;SDS011;44851;45.648;9.004;2024-01-30T13:11:49;32.40;;;28.10;;
59062;SDS011;44851;45.648;9.004;2024-01-30T13:14:16;30.47;;;25.43;;
59062;SDS011;44851;45.648;9.004;2024-01-30T13:16:41;32.13;;;26.53;;
59062;SDS011;44851;45.648;9.004;2024-01-30T13:19:07;29.37;;;24.23;;
59062;SDS011;44851;45.648;9.004;2024-01-30T13:21:32;32.30;;;25.20;;
59062;SDS011;44851;45.648;9.004;2024-01-30T13:23:58;29.70;;;25.00;;
59062;SDS011;44851;45.648;9.004;2024-01-30T13:26:23;28.07;;;24.97;;
59062;SDS011;44851;45.648;9.004;2024-01-30T13:28:49;27.97;;;23.70;;
59062;SDS011;44851;45.648;9.004;2024-01-30T13:31:14;27.00;;;22.63;;
59062;SDS011;44851;45.648;9.004;2024-01-30T13:33:40;26.60;;;22.10;;
59062;SDS011;44851;45.648;9.004;2024-01-30T13:36:09;26.27;;;22.63;;
59062;SDS011;44851;45.648;9.004;2024-01-30T13:38:35;25.97;;;22.00;;
59062;SDS011;44851;45.648;9.004;2024-01-30T13:41:01;27.03;;;22.30;;
59062;SDS011;44851;45.648;9.004;2024-01-30T13:43:27;27.67;;;22.50;;
59062;SDS011;44851;45.648;9.004;2024-01-30T13:45:53;27.20;;;22.77;;
59062;SDS011;44851;45.648;9.004;2024-01-30T13:48:19;29.50;;;26.07;;
59062;SDS011;44851;45.648;9.004;2024-01-30T13:50:44;26.50;;;22.60;;
59062;SDS011;44851;45.648;9.004;2024-01-30T13:53:11;27.33;;;23.57;;
59062;SDS011;44851;45.648;9.004;2024-01-30T13:55:36;32.20;;;24.83;;
59062;SDS011;44851;45.648;9.004;2024-01-30T13:58:03;38.67;;;30.43;;
59062;SDS011;44851;45.648;9.004;2024-01-30T14:00:28;30.33;;;25.50;;
59062;SDS011;44851;45.648;9.004;2024-01-30T14:02:54;28.87;;;24.07;;
59062;SDS011;44851;45.648;9.004;2024-01-30T14:05:26;27.30;;;22.37;;
59062;SDS011;44851;45.648;9.004;2024-01-30T14:07:54;31.10;;;23.80;;
59062;SDS011;44851;45.648;9.004;2024-01-30T14:10:21;28.83;;;23.73;;
59062;SDS011;44851;45.648;9.004;2024-01-30T14:12:46;29.13;;;21.83;;
59062;SDS011;44851;45.648;9.004;2024-01-30T14:15:13;32.70;;;23.87;;
59062;SDS011;44851;45.648;9.004;2024-01-30T14:17:46;31.87;;;24.10;;